Time;durP1;ratioP1;P1;durP2;ratioP2;P2;SDS_P1;SDS_P2;PMS_P1;PMS_P2;Temp;Humidity;BMP_temperature;BMP_pressure;BME280_temperature;BME280_humidity;BME280_pressure;Samples;Min_cycle;Max_cycle;Signal;HPM_P1;HPM_P2
2023/12/05 00:01:01;;;;;;;25.73;18.23;;;;;;;4.27;100.00;58262.50;6184308;23;20166;-57
2023/12/05 00:03:28;;;;;;;25.13;18.47;;;;;;;4.31;100.00;58754.44;6184652;23;20217;-57
2023/12/05 00:05:55;;;;;;;24.40;17.67;;;;;;;4.19;100.00;58297.13;6184276;23;20162;-57
2023/12/05 00:08:23;;;;;;;27.10;18.30;;;;;;;4.17;100.00;57151.88;6184676;23;20162;-59
2023/12/05 00:10:50;;;;;;;26.47;18.13;;;;;;;4.16;100.00;57029.75;6184175;23;20162;-58
2023/12/05 00:13:17;;;;;;;24.50;17.03;;;;;;;4.19;100.00;57314.22;6184054;23;20158;-57
2023/12/05 00:15:44;;;;;;;23.73;18.10;;;;;;;4.40;100.00;57033.47;6184607;23;20158;-57
2023/12/05 00:18:11;;;;;;;23.10;17.37;;;;;;;4.42;100.00;58556.88;6184172;23;20154;-57
2023/12/05 00:20:38;;;;;;;27.03;17.53;;;;;;;4.46;100.00;59637.75;6184527;23;20158;-58
2023/12/05 00:23:05;;;;;;;21.83;17.63;;;;;;;4.55;100.00;59818.22;6184161;23;20170;-58
2023/12/05 00:25:34;;;;;;;23.57;17.50;;;;;;;4.54;100.00;61700.25;6184514;23;20216;-57
2023/12/05 00:28:01;;;;;;;27.07;17.67;;;;;;;4.28;100.00;62639.63;6184461;23;20241;-59
2023/12/05 00:30:28;;;;;;;20.37;17.63;;;;;;;4.52;100.00;61053.53;6184181;23;20169;-58
2023/12/05 00:32:55;;;;;;;22.73;17.37;;;;;;;4.58;100.00;60415.41;6184453;23;20162;-58
2023/12/05 00:35:22;;;;;;;20.40;16.40;;;;;;;4.61;100.00;59774.13;6184628;23;20529;-57
2023/12/05 00:37:49;;;;;;;18.93;16.77;;;;;;;4.69;100.00;60104.16;6183994;23;20158;-58
2023/12/05 00:40:16;;;;;;;22.37;17.27;;;;;;;4.56;100.00;61702.38;6184411;23;20166;-57
2023/12/05 00:42:45;;;;;;;22.80;17.10;;;;;;;4.47;100.00;62015.03;6184373;23;20601;-59
2023/12/05 00:45:14;;;;;;;17.83;15.93;;;;;;;4.38;100.00;62005.34;6183925;23;20162;-58
2023/12/05 00:47:41;;;;;;;17.83;15.90;;;;;;;4.66;100.00;60101.53;6183803;23;20182;-59
2023/12/05 00:50:09;;;;;;;20.43;16.17;;;;;;;4.72;100.00;59141.13;6184332;23;20479;-57
2023/12/05 00:52:36;;;;;;;19.57;16.17;;;;;;;4.75;100.00;60110.94;6184143;23;20209;-57
2023/12/05 00:55:04;;;;;;;26.90;16.10;;;;;;;4.69;100.00;60426.94;6183790;23;20185;-58
2023/12/05 00:57:31;;;;;;;32.50;15.90;;;;;;;4.77;100.00;60757.66;6183825;23;20154;-58
2023/12/05 01:00:00;;;;;;;21.10;16.13;;;;;;;4.73;100.00;61075.78;6184291;23;20471;-57
2023/12/05 01:02:27;;;;;;;22.23;16.43;;;;;;;4.73;100.00;62687.44;6184225;23;20537;-58
2023/12/05 01:04:54;;;;;;;18.63;14.80;;;;;;;4.80;100.00;64308.75;6184239;23;20605;-58
2023/12/05 01:07:21;;;;;;;25.67;16.67;;;;;;;4.73;100.00;66237.50;6183807;23;20182;-57
2023/12/05 01:09:49;;;;;;;21.83;15.27;;;;;;;4.80;100.00;67214.34;6184172;23;20162;-57
2023/12/05 01:12:16;;;;;;;18.57;15.30;;;;;;;4.78;100.00;70443.25;6183769;23;20216;-57
2023/12/05 01:14:43;;;;;;;16.23;14.53;;;;;;;4.58;100.00;70095.78;6184253;23;20232;-57
2023/12/05 01:17:11;;;;;;;16.20;14.60;;;;;;;4.63;100.00;62354.66;6183921;23;20193;-58
2023/12/05 01:19:39;;;;;;;22.03;14.97;;;;;;;4.46;100.00;58470.41;6184102;23;20553;-58
2023/12/05 01:22:06;;;;;;;22.63;15.60;;;;;;;4.58;100.00;57516.66;6183654;23;20240;-57
2023/12/05 01:24:33;;;;;;;17.27;15.47;;;;;;;4.54;100.00;60411.72;6183631;23;20176;-58
2023/12/05 01:27:00;;;;;;;16.10;14.37;;;;;;;4.43;100.00;61688.44;6184584;23;20186;-57
2023/12/05 01:29:27;;;;;;;26.47;15.93;;;;;;;4.35;100.00;56207.06;6183763;23;20165;-62
2023/12/05 01:31:54;;;;;;;25.20;16.13;;;;;;;4.35;100.00;54920.00;6184101;23;20501;-57
2023/12/05 01:34:22;;;;;;;20.47;16.20;;;;;;;4.30;100.00;53951.16;6183663;23;20254;-57
2023/12/05 01:36:49;;;;;;;18.37;15.30;;;;;;;4.52;100.00;52685.81;6183996;23;20159;-58
2023/12/05 01:39:16;;;;;;;17.47;14.63;;;;;;;4.55;100.00;53974.25;6183669;23;20166;-57
2023/12/05 01:41:43;;;;;;;17.93;15.30;;;;;;;4.51;100.00;56865.88;6185787;23;20664;-57
2023/12/05 01:44:10;;;;;;;16.17;14.47;;;;;;;4.52;100.00;57188.72;6185816;23;20236;-57
2023/12/05 01:46:38;;;;;;;20.40;15.47;;;;;;;4.60;100.00;56874.78;6185863;23;20572;-59
2023/12/05 01:49:05;;;;;;;17.20;14.67;;;;;;;4.64;100.00;59454.53;6185884;23;20240;-58
2023/12/05 01:51:34;;;;;;;17.03;14.93;;;;;;;4.67;100.00;58491.28;6185604;23;20178;-58
2023/12/05 01:54:03;;;;;;;19.97;14.47;;;;;;;4.68;100.00;61070.50;6185906;23;20644;-58
2023/12/05 01:56:31;;;;;;;16.87;14.37;;;;;;;4.53;100.00;67506.41;6185463;23;20163;-59
2023/12/05 01:58:58;;;;;;;19.83;15.50;;;;;;;4.54;100.00;71706.88;6185414;23;20162;-58
2023/12/05 02:01:25;;;;;;;18.27;14.53;;;;;;;4.45;100.00;69110.97;6185435;23;20173;-58
2023/12/05 02:03:52;;;;;;;20.50;15.53;;;;;;;4.51;100.00;69118.13;6185781;23;20202;-57
2023/12/05 02:06:21;;;;;;;30.57;16.47;;;;;;;4.44;100.00;65236.31;6185865;23;20494;-57
2023/12/05 02:08:50;;;;;;;19.90;15.70;;;;;;;4.36;100.00;55564.19;6185222;23;20178;-57
2023/12/05 02:11:17;;;;;;;18.27;15.97;;;;;;;4.63;100.00;52695.47;6185792;23;20164;-58
2023/12/05 02:13:44;;;;;;;24.80;15.77;;;;;;;4.60;100.00;52050.25;6185325;23;20478;-57
2023/12/05 02:16:23;;;;;;;21.83;15.67;;;;;;;4.63;100.00;53338.56;6185659;23;20162;-57
2023/12/05 02:18:57;;;;;;;17.97;15.33;;;;;;;4.57;100.00;53976.13;6185696;23;20188;-57
2023/12/05 02:21:30;;;;;;;20.77;16.73;;;;;;;4.73;100.00;54956.41;6185803;23;20162;-57
2023/12/05 02:24:38;;;;;;;25.60;17.93;;;;;;;4.63;100.00;56877.75;6185663;23;20162;-58
2023/12/05 02:27:17;;;;;;;23.03;16.97;;;;;;;4.57;100.00;52047.06;6184364;23;20263;-58
2023/12/05 02:29:50;;;;;;;29.43;17.23;;;;;;;4.54;100.00;50879.88;6185256;23;20184;-57
2023/12/05 02:32:17;;;;;;;19.30;15.90;;;;;;;4.53;100.00;50248.56;6185110;23;20166;-57
2023/12/05 02:34:45;;;;;;;16.57;14.73;;;;;;;4.49;100.00;48724.69;6185089;23;20158;-58
2023/12/05 02:37:18;;;;;;;21.63;15.73;;;;;;;4.53;100.00;47428.97;6185568;23;20460;-57
2023/12/05 02:39:55;;;;;;;17.57;15.53;;;;;;;4.57;100.00;46698.03;6186090;23;20166;-58
2023/12/05 02:42:24;;;;;;;26.37;16.47;;;;;;;4.57;100.00;47234.19;6185091;23;20602;-57
2023/12/05 02:44:55;;;;;;;21.03;16.17;;;;;;;4.67;100.00;49264.50;6185433;23;20168;-57
2023/12/05 02:47:26;;;;;;;17.43;15.23;;;;;;;4.58;100.00;50793.06;6184944;23;20233;-58
2023/12/05 02:49:53;;;;;;;24.40;16.47;;;;;;;4.59;100.00;50191.09;6185448;23;20155;-57
2023/12/05 02:52:20;;;;;;;20.40;16.30;;;;;;;4.75;100.00;48287.72;6185089;23;20201;-57
2023/12/05 02:54:47;;;;;;;19.57;16.27;;;;;;;4.78;100.00;50298.19;6185391;23;20169;-58
2023/12/05 02:57:15;;;;;;;28.13;19.20;;;;;;;4.46;100.00;52988.72;6184934;23;20159;-57
2023/12/05 02:59:42;;;;;;;27.13;19.13;;;;;;;4.52;100.00;49758.38;6185432;23;20226;-59
2023/12/05 03:02:10;;;;;;;29.13;21.13;;;;;;;4.62;100.00;50288.69;6185332;23;20452;-57
2023/12/05 03:04:37;;;;;;;34.87;20.40;;;;;;;4.64;100.00;50390.84;6184939;23;20158;-57
2023/12/05 03:07:05;;;;;;;28.27;20.20;;;;;;;4.66;100.00;51728.78;6185192;23;20695;-57
2023/12/05 03:09:32;;;;;;;26.87;19.53;;;;;;;4.67;100.00;51094.38;6185311;23;20155;-57
2023/12/05 03:11:59;;;;;;;27.60;19.73;;;;;;;4.82;100.00;51006.88;6185516;23;20217;-57
2023/12/05 03:14:26;;;;;;;33.77;21.70;;;;;;;4.79;100.00;51303.50;6184751;23;20225;-56
2023/12/05 03:16:55;;;;;;;33.37;20.23;;;;;;;4.71;100.00;53134.50;6184684;23;20158;-58
2023/12/05 03:19:24;;;;;;;31.23;20.37;;;;;;;4.76;100.00;51657.44;6184702;23;20221;-58
2023/12/05 03:21:51;;;;;;;25.43;18.30;;;;;;;4.65;100.00;53247.47;6184612;23;20248;-57
2023/12/05 03:24:18;;;;;;;29.27;19.53;;;;;;;4.59;100.00;49990.75;6184544;23;20240;-57
2023/12/05 03:26:45;;;;;;;34.27;19.33;;;;;;;4.63;100.00;51228.88;6184565;23;20185;-58
2023/12/05 03:29:12;;;;;;;29.70;19.87;;;;;;;4.50;100.00;50404.03;6184432;23;20328;-57
2023/12/05 03:31:41;;;;;;;28.80;19.13;;;;;;;4.28;100.00;50931.56;6185565;23;20221;-57
2023/12/05 03:34:08;;;;;;;28.60;20.40;;;;;;;4.20;100.00;46256.34;6184568;23;20166;-57
2023/12/05 03:36:36;;;;;;;30.43;18.73;;;;;;;3.87;100.00;44473.00;6184390;23;20162;-57
2023/12/05 03:39:03;;;;;;;23.73;17.57;;;;;;;4.18;100.00;42932.34;6184828;23;20522;-58
2023/12/05 03:41:30;;;;;;;23.23;17.47;;;;;;;4.28;100.00;41695.72;6184865;23;20158;-57
2023/12/05 03:43:57;;;;;;;30.27;19.93;;;;;;;4.40;100.00;43071.34;6184408;23;20216;-57
2023/12/05 03:46:24;;;;;;;33.93;21.17;;;;;;;4.55;100.00;44956.53;6184878;23;20236;-57
2023/12/05 03:48:52;;;;;;;34.17;21.40;;;;;;;4.49;100.00;49100.94;6184330;23;20189;-59
2023/12/05 03:51:19;;;;;;;31.70;20.97;;;;;;;4.63;100.00;51660.31;6184704;23;20224;-58
2023/12/05 03:53:47;;;;;;;21.33;16.87;;;;;;;4.53;100.00;46513.84;6184159;23;20287;-58
2023/12/05 03:56:15;;;;;;;25.43;16.10;;;;;;;4.61;100.00;45262.03;6184331;23;20212;-58
2023/12/05 03:58:42;;;;;;;20.13;15.33;;;;;;;4.59;100.00;42607.44;6184203;23;20162;-59
2023/12/05 04:01:09;;;;;;;13.60;12.20;;;;;;;4.73;100.00;38294.72;6184567;23;20590;-58
2023/12/05 04:03:36;;;;;;;14.40;12.90;;;;;;;4.95;100.00;34358.53;6185446;23;20201;-58
2023/12/05 04:06:04;;;;;;;37.83;22.70;;;;;;;4.94;100.00;38674.75;6184596;23;20197;-58
2023/12/05 04:08:31;;;;;;;56.83;31.63;;;;;;;4.83;100.00;46977.31;6184149;23;20236;-59
2023/12/05 04:10:59;;;;;;;37.13;24.13;;;;;;;4.76;100.00;51818.19;6184038;23;20170;-58
2023/12/05 04:13:26;;;;;;;36.93;23.13;;;;;;;4.71;100.00;53499.28;6184644;23;20475;-58
2023/12/05 04:15:53;;;;;;;32.33;21.90;;;;;;;4.81;100.00;53231.75;6184802;23;20219;-58
2023/12/05 04:18:21;;;;;;;34.37;22.77;;;;;;;4.82;100.00;53024.56;6184150;23;20159;-58
2023/12/05 04:20:48;;;;;;;31.47;22.43;;;;;;;4.87;100.00;51769.94;6184549;23;20151;-58
2023/12/05 04:23:15;;;;;;;34.83;23.63;;;;;;;4.90;100.00;50082.31;6184433;23;20684;-58
2023/12/05 04:25:42;;;;;;;32.73;22.87;;;;;;;4.92;100.00;49592.38;6184132;23;20162;-58
2023/12/05 04:28:10;;;;;;;37.30;22.50;;;;;;;4.86;100.00;47002.38;6184398;23;20565;-58
2023/12/05 04:30:37;;;;;;;34.17;22.57;;;;;;;4.82;100.00;47851.59;6184017;23;20166;-58
2023/12/05 04:33:04;;;;;;;35.60;23.77;;;;;;;4.86;100.00;47127.81;6184459;23;20503;-59
2023/12/05 04:35:32;;;;;;;39.73;22.87;;;;;;;4.97;100.00;47039.06;6184221;23;20162;-58
2023/12/05 04:37:59;;;;;;;39.20;25.23;;;;;;;4.95;100.00;48267.00;6184478;23;20489;-59
2023/12/05 04:40:26;;;;;;;35.87;21.97;;;;;;;4.99;100.00;48649.00;6184145;23;20217;-59
2023/12/05 04:42:53;;;;;;;36.87;23.70;;;;;;;4.91;100.00;48866.00;6184474;23;20162;-57
2023/12/05 04:45:21;;;;;;;34.13;22.67;;;;;;;4.86;100.00;49383.41;6183955;23;20162;-57
2023/12/05 04:47:48;;;;;;;42.33;22.63;;;;;;;5.01;100.00;47295.38;6183837;23;20212;-58
2023/12/05 04:50:15;;;;;;;27.83;20.00;;;;;;;5.04;100.00;48181.75;6184220;23;20217;-58
2023/12/05 04:52:42;;;;;;;35.00;22.07;;;;;;;5.01;100.00;48761.59;6184114;23;20198;-58
2023/12/05 04:55:09;;;;;;;29.93;20.90;;;;;;;5.05;100.00;48210.22;6183819;23;20188;-57
2023/12/05 04:57:36;;;;;;;33.20;23.10;;;;;;;4.99;100.00;48955.28;6184259;23;20570;-57
2023/12/05 05:00:05;;;;;;;34.13;21.10;;;;;;;4.99;100.00;48302.59;6183815;23;20159;-59
2023/12/05 05:02:34;;;;;;;28.50;20.70;;;;;;;5.00;100.00;46296.41;6184144;23;20498;-57
2023/12/05 05:05:01;;;;;;;30.83;20.47;;;;;;;4.98;100.00;44589.41;6183789;23;20163;-58
2023/12/05 05:07:28;;;;;;;28.83;17.90;;;;;;;4.85;100.00;42684.66;6184021;23;20420;-58
2023/12/05 05:09:55;;;;;;;24.70;17.70;;;;;;;5.22;100.00;40030.97;6183761;23;20225;-58
2023/12/05 05:12:22;;;;;;;18.40;16.20;;;;;;;5.29;100.00;38773.25;6184090;23;20530;-58
2023/12/05 05:14:49;;;;;;;17.93;15.10;;;;;;;5.51;100.00;37546.16;6183357;23;20220;-58
2023/12/05 05:17:16;;;;;;;26.60;18.17;;;;;;;5.56;100.00;35644.22;6183695;23;20166;-58
2023/12/05 05:19:45;;;;;;;24.53;15.60;;;;;;;5.69;100.00;34105.44;6184119;23;20154;-57
2023/12/05 05:22:12;;;;;;;19.57;15.37;;;;;;;5.70;100.00;32497.72;6183750;23;20216;-57
2023/12/05 05:24:39;;;;;;;13.63;12.23;;;;;;;5.97;100.00;31997.84;6184130;23;20470;-57
2023/12/05 05:27:06;;;;;;;14.00;11.23;;;;;;;6.07;100.00;31398.09;6183626;23;20240;-57
2023/12/05 05:29:33;;;;;;;12.20;10.93;;;;;;;6.20;100.00;30907.25;6183945;23;20178;-58
2023/12/05 05:32:00;;;;;;;13.03;9.73;;;;;;;6.25;100.00;31938.59;6183681;23;20158;-57
2023/12/05 05:34:27;;;;;;;10.90;9.87;;;;;;;6.33;100.00;33215.09;6183522;23;20197;-57
2023/12/05 05:36:56;;;;;;;11.93;10.77;;;;;;;6.31;100.00;34160.63;6183973;23;20229;-57
2023/12/05 05:39:23;;;;;;;13.00;11.30;;;;;;;6.31;100.00;33789.91;6183967;23;20525;-58
2023/12/05 05:41:50;;;;;;;11.83;9.60;;;;;;;6.37;100.00;34790.94;6183873;23;20221;-58
2023/12/05 05:44:17;;;;;;;13.90;10.33;;;;;;;6.21;100.00;43473.88;6183945;23;20166;-59
2023/12/05 05:46:44;;;;;;;9.93;9.13;;;;;;;6.39;100.00;43575.97;6183550;23;20564;-57
2023/12/05 05:49:11;;;;;;;9.97;9.10;;;;;;;6.45;100.00;43788.75;6183527;23;20253;-58
2023/12/05 05:51:38;;;;;;;9.43;8.73;;;;;;;6.66;100.00;48181.25;6183699;23;20178;-58
2023/12/05 05:54:07;;;;;;;13.57;8.33;;;;;;;6.78;100.00;47084.00;6183832;23;20159;-57
2023/12/05 05:56:39;;;;;;;9.30;8.60;;;;;;;6.95;100.00;50593.19;6184029;23;20605;-57
2023/12/05 05:59:06;;;;;;;9.87;8.87;;;;;;;7.06;100.00;46265.94;6183835;23;20566;-58
2023/12/05 06:01:33;;;;;;;11.73;10.27;;;;;;;7.22;100.00;41287.34;6183891;23;20589;-58
2023/12/05 06:04:00;;;;;;;42.17;26.17;;;;;;;7.26;100.00;35625.91;6183488;23;20162;-57
2023/12/05 06:06:27;;;;;;;61.40;31.63;;;;;;;7.32;100.00;33379.31;6183732;23;20167;-57
2023/12/05 06:08:55;;;;;;;19.40;15.40;;;;;;;7.22;100.00;35194.56;6183446;23;20183;-57
2023/12/05 06:11:24;;;;;;;25.50;19.43;;;;;;;7.17;100.00;35406.91;6183532;23;20245;-57
2023/12/05 06:13:51;;;;;;;26.03;16.87;;;;;;;7.18;100.00;32006.94;6183713;23;20475;-57
2023/12/05 06:16:18;;;;;;;23.70;15.80;;;;;;;7.19;100.00;31839.28;6184462;23;20167;-59
2023/12/05 06:18:45;;;;;;;19.40;16.03;;;;;;;7.27;100.00;26037.72;6183386;23;20163;-59
2023/12/05 06:21:12;;;;;;;23.90;14.37;;;;;;;7.17;100.00;23354.13;6183855;23;20597;-57
2023/12/05 06:23:39;;;;;;;21.77;16.57;;;;;;;7.32;100.00;22080.47;6183349;23;20158;-58
2023/12/05 06:26:07;;;;;;;18.47;14.97;;;;;;;7.34;100.00;20162.06;6183903;23;20237;-58
2023/12/05 06:28:35;;;;;;;22.47;17.73;;;;;;;7.39;100.00;19524.19;6185662;23;20249;-58
2023/12/05 06:31:02;;;;;;;15.77;14.10;;;;;;;7.39;100.00;19204.44;6185469;23;20258;-59
2023/12/05 06:33:29;;;;;;;15.10;11.63;;;;;;;7.45;100.00;22725.78;6185140;23;20167;-59
2023/12/05 06:35:57;;;;;;;15.17;13.77;;;;;;;7.49;100.00;22727.69;6184972;23;20163;-58
2023/12/05 06:38:24;;;;;;;17.13;11.37;;;;;;;7.48;100.00;23047.19;6185334;23;20155;-59
2023/12/05 06:40:51;;;;;;;8.53;7.70;;;;;;;7.62;100.00;25616.28;6185177;23;20565;-57
2023/12/05 06:43:18;;;;;;;8.30;7.63;;;;;;;7.74;100.00;27866.25;6185217;23;20162;-58
2023/12/05 06:45:46;;;;;;;7.60;6.90;;;;;;;7.77;100.00;32361.91;6184827;23;20221;-56
2023/12/05 06:48:15;;;;;;;7.63;6.97;;;;;;;7.84;100.00;33650.59;6184630;23;20188;-57
2023/12/05 06:50:45;;;;;;;5.10;4.80;;;;;;;7.72;100.00;46843.34;6184751;23;20162;-56
2023/12/05 06:53:12;;;;;;;4.10;3.90;;;;;;;7.90;100.00;49439.59;6184452;23;20202;-56
2023/12/05 06:55:39;;;;;;;4.57;4.37;;;;;;;7.78;100.00;55893.19;6184615;23;20166;-56
2023/12/05 06:58:06;;;;;;;5.37;4.17;;;;;;;7.99;100.00;55265.56;6185082;23;20501;-56
2023/12/05 07:00:34;;;;;;;7.60;4.03;;;;;;;7.93;100.00;62383.81;6185487;23;20162;-57
2023/12/05 07:03:02;;;;;;;3.93;3.73;;;;;;;8.02;100.00;71808.50;6184860;23;20469;-57
2023/12/05 07:05:29;;;;;;;3.57;3.27;;;;;;;8.10;100.00;76374.09;6184387;23;20162;-58
2023/12/05 07:07:57;;;;;;;4.63;4.23;;;;;;;8.21;100.00;76387.88;6184463;23;20162;-57
2023/12/05 07:10:24;;;;;;;4.23;3.90;;;;;;;8.17;100.00;85512.00;6184433;23;20165;-58
2023/12/05 07:12:52;;;;;;;3.97;3.77;;;;;;;8.31;100.00;95997.38;6184252;23;20158;-56
2023/12/05 07:15:19;;;;;;;4.23;3.93;;;;;;;8.35;100.00;95677.22;6184384;23;20601;-56
2023/12/05 07:17:47;;;;;;;4.50;4.20;;;;;;;8.31;100.00;108466.38;6184472;23;20163;-57
2023/12/05 07:20:16;;;;;;;4.87;4.57;;;;;;;8.21;100.00;109764.59;6184795;23;20656;-57
2023/12/05 07:22:43;;;;;;;5.80;4.60;;;;;;;8.43;100.00;118696.78;6184375;23;20162;-57
2023/12/05 07:25:11;;;;;;;5.33;4.93;;;;;;;8.50;100.00;122339.41;6184894;23;20162;-60
2023/12/05 07:27:38;;;;;;;7.03;5.03;;;;;;;8.54;100.00;130611.03;6184626;23;20216;-58
2023/12/05 07:30:08;;;;;;;6.20;5.70;;;;;;;8.58;100.00;140197.72;6185488;23;20716;-57
2023/12/05 07:32:35;;;;;;;5.90;5.30;;;;;;;8.67;100.00;147889.41;6184556;23;20158;-60
2023/12/05 07:35:05;;;;;;;5.53;5.20;;;;;;;8.76;100.00;148244.81;6184512;23;20597;-57
2023/12/05 07:37:34;;;;;;;5.53;5.13;;;;;;;8.78;100.00;148251.16;6183654;23;20253;-58
2023/12/05 07:40:01;;;;;;;4.87;4.47;;;;;;;8.78;100.00;148249.91;6185226;23;20479;-58
2023/12/05 07:42:28;;;;;;;5.20;4.90;;;;;;;8.73;100.00;148238.53;6184649;23;20252;-59
2023/12/05 07:44:55;;;;;;;6.00;5.03;;;;;;;8.75;100.00;148243.56;6184242;23;20166;-58
2023/12/05 07:47:23;;;;;;;4.60;4.33;;;;;;;8.70;100.00;148230.91;6184351;23;20197;-57
2023/12/05 07:49:50;;;;;;;4.03;3.80;;;;;;;8.47;100.00;148174.16;6184245;23;20237;-58
2023/12/05 07:52:18;;;;;;;3.80;3.60;;;;;;;8.84;100.00;148266.28;6184523;23;20202;-58
2023/12/05 07:54:47;;;;;;;3.93;3.63;;;;;;;8.71;100.00;148234.72;6185080;23;20537;-56
2023/12/05 07:57:15;;;;;;;3.50;3.30;;;;;;;8.67;100.00;148224.63;6184162;23;20556;-57
2023/12/05 07:59:42;;;;;;;4.23;3.83;;;;;;;8.39;100.00;148152.72;6183147;23;20582;-58
2023/12/05 08:02:10;;;;;;;4.37;3.77;;;;;;;8.22;100.00;148112.31;6184141;23;20221;-57
2023/12/05 08:04:38;;;;;;;5.87;3.60;;;;;;;8.38;100.00;148151.44;6184215;23;20158;-57
2023/12/05 08:07:05;;;;;;;4.20;4.00;;;;;;;8.59;100.00;141442.16;6183594;23;20163;-57
2023/12/05 08:09:32;;;;;;;5.13;4.73;;;;;;;8.61;100.00;130627.72;6182678;23;20182;-58
2023/12/05 08:12:01;;;;;;;5.67;5.37;;;;;;;8.58;100.00;134925.94;6183847;23;20169;-58
2023/12/05 08:14:28;;;;;;;6.10;5.67;;;;;;;8.76;100.00;131653.28;6185394;23;20648;-59
2023/12/05 08:16:55;;;;;;;6.23;5.83;;;;;;;8.73;100.00;136616.81;6184311;23;20549;-58
2023/12/05 08:19:22;;;;;;;10.90;7.03;;;;;;;8.87;100.00;147412.28;6183951;23;20212;-58
2023/12/05 08:21:49;;;;;;;4.57;4.27;;;;;;;8.76;100.00;148244.81;6184023;23;20209;-58
2023/12/05 08:24:16;;;;;;;4.57;4.27;;;;;;;8.73;100.00;148238.53;6183752;23;20530;-58
2023/12/05 08:26:43;;;;;;;4.33;4.13;;;;;;;8.81;100.00;148257.44;6183829;23;20163;-58
2023/12/05 08:29:12;;;;;;;4.27;3.97;;;;;;;8.83;100.00;148262.47;6183632;23;20190;-57
2023/12/05 08:31:39;;;;;;;4.23;3.80;;;;;;;8.80;100.00;148256.19;6184007;23;20166;-59
2023/12/05 08:34:06;;;;;;;4.53;4.13;;;;;;;8.69;100.00;148228.44;6184068;23;20162;-58
2023/12/05 08:36:33;;;;;;;4.17;3.70;;;;;;;8.67;100.00;148224.63;6183765;23;20158;-58
2023/12/05 08:39:00;;;;;;;4.67;4.33;;;;;;;8.76;100.00;148244.81;6184317;23;20606;-58
2023/12/05 08:41:27;;;;;;;4.73;4.33;;;;;;;8.69;100.00;148228.44;6183703;23;20220;-58
2023/12/05 08:43:54;;;;;;;5.03;4.60;;;;;;;8.83;100.00;148263.75;6183580;23;20296;-58
2023/12/05 08:46:23;;;;;;;4.37;4.07;;;;;;;8.82;100.00;148260.00;6183749;23;20226;-58
2023/12/05 08:48:50;;;;;;;5.43;5.03;;;;;;;8.92;100.00;148286.47;6183663;23;20170;-58
2023/12/05 08:51:18;;;;;;;4.90;4.50;;;;;;;8.97;100.00;148297.84;6184163;23;20170;-59
2023/12/05 08:53:45;;;;;;;4.13;3.83;;;;;;;8.98;100.00;148300.38;6183531;23;20280;-58
2023/12/05 08:56:12;;;;;;;7.03;5.50;;;;;;;8.98;100.00;148300.38;6184223;23;20154;-59
2023/12/05 08:58:40;;;;;;;4.73;4.33;;;;;;;8.78;100.00;148249.91;6183951;23;20232;-59
2023/12/05 09:01:10;;;;;;;4.80;4.50;;;;;;;8.85;100.00;148268.81;6183867;23;20606;-58
2023/12/05 09:03:39;;;;;;;10.77;6.07;;;;;;;8.92;100.00;148285.22;6183832;23;20162;-58
2023/12/05 09:06:07;;;;;;;6.43;5.93;;;;;;;8.99;100.00;148302.91;6183988;23;20188;-58
2023/12/05 09:08:34;;;;;;;6.03;5.53;;;;;;;9.00;100.00;148306.66;6183645;23;20220;-58
2023/12/05 09:11:01;;;;;;;5.37;5.00;;;;;;;8.96;100.00;148296.56;6183739;23;20182;-58
2023/12/05 09:13:28;;;;;;;6.70;6.20;;;;;;;9.03;100.00;148313.00;6183531;23;20165;-57
2023/12/05 09:15:55;;;;;;;5.87;5.47;;;;;;;9.02;100.00;148310.47;6183436;23;20213;-58
2023/12/05 09:18:22;;;;;;;10.23;5.80;;;;;;;9.08;100.00;148325.63;6183683;23;20498;-58
2023/12/05 09:20:51;;;;;;;8.77;6.50;;;;;;;9.07;100.00;148324.38;6183702;23;20154;-58
2023/12/05 09:23:19;;;;;;;6.60;5.90;;;;;;;9.08;100.00;148325.63;6183619;23;20237;-58
2023/12/05 09:25:46;;;;;;;8.07;5.50;;;;;;;9.07;100.00;148324.38;6183681;23;20216;-58
2023/12/05 09:28:13;;;;;;;8.27;5.80;;;;;;;9.15;100.00;148343.31;6183771;23;20158;-57
2023/12/05 09:30:41;;;;;;;6.77;5.57;;;;;;;9.09;100.00;148328.13;6184286;23;20182;-59
2023/12/05 09:33:08;;;;;;;5.43;4.93;;;;;;;9.31;100.00;148383.69;6184339;23;20549;-58
2023/12/05 09:35:35;;;;;;;5.47;5.13;;;;;;;9.26;100.00;148369.78;6184274;23;20162;-57
2023/12/05 09:38:04;;;;;;;5.73;5.33;;;;;;;9.28;100.00;142722.66;6184244;23;20232;-59
2023/12/05 09:40:32;;;;;;;6.27;5.87;;;;;;;9.17;100.00;115215.75;6183847;23;20166;-58
2023/12/05 09:43:01;;;;;;;3.70;3.50;;;;;;;9.08;100.00;110254.16;6183811;23;20241;-58
2023/12/05 09:45:33;;;;;;;4.37;4.07;;;;;;;8.87;100.00;114496.66;6183972;23;20165;-59
2023/12/05 09:48:02;;;;;;;5.07;4.47;;;;;;;8.69;100.00;94749.03;6183532;23;20158;-57
2023/12/05 09:50:29;;;;;;;5.87;4.67;;;;;;;8.61;100.00;74811.56;6182984;23;20493;-58
2023/12/05 09:52:59;;;;;;;6.47;5.63;;;;;;;8.56;100.00;63425.53;6183956;23;20209;-58
2023/12/05 09:55:27;;;;;;;6.00;5.57;;;;;;;8.22;100.00;50113.94;6183387;23;20158;-58
2023/12/05 09:57:57;;;;;;;7.43;5.37;;;;;;;8.67;100.00;42400.72;6183582;23;20169;-59
2023/12/05 10:00:24;;;;;;;5.27;4.87;;;;;;;8.52;100.00;52403.22;6182844;23;20158;-58
2023/12/05 10:02:54;;;;;;;5.40;5.00;;;;;;;8.54;100.00;54346.75;6185633;23;20517;-58
2023/12/05 10:05:22;;;;;;;6.90;6.40;;;;;;;8.33;100.00;45278.25;6185163;23;20219;-57
2023/12/05 10:07:49;;;;;;;6.57;5.93;;;;;;;8.46;100.00;43030.13;6185155;23;20154;-58
2023/12/05 10:10:19;;;;;;;5.70;5.07;;;;;;;8.48;100.00;42709.06;6185014;23;20178;-59
2023/12/05 10:12:48;;;;;;;6.20;5.80;;;;;;;8.59;100.00;44007.69;6185536;23;20224;-58
2023/12/05 10:15:16;;;;;;;6.37;5.87;;;;;;;8.73;100.00;48217.44;6184852;23;20163;-58
2023/12/05 10:17:43;;;;;;;5.40;4.97;;;;;;;8.79;100.00;54046.09;6184674;23;20162;-59
2023/12/05 10:20:12;;;;;;;5.03;4.37;;;;;;;8.69;100.00;55332.94;6185128;23;20159;-59
2023/12/05 10:22:39;;;;;;;6.67;4.07;;;;;;;8.67;100.00;60192.63;6185780;23;20597;-58
2023/12/05 10:25:08;;;;;;;4.73;4.50;;;;;;;8.71;100.00;63117.31;6185468;23;20624;-57
2023/12/05 10:27:35;;;;;;;8.30;4.93;;;;;;;8.75;100.00;63120.59;6184932;23;20197;-58
2023/12/05 10:30:05;;;;;;;6.27;5.67;;;;;;;8.89;100.00;66384.75;6184719;23;20178;-57
2023/12/05 10:32:32;;;;;;;8.90;5.00;;;;;;;8.96;100.00;66068.28;6185100;23;20167;-59
2023/12/05 10:35:01;;;;;;;4.00;3.60;;;;;;;8.96;100.00;79094.44;6185838;23;20158;-58
2023/12/05 10:37:29;;;;;;;8.60;5.60;;;;;;;9.02;100.00;86289.16;6184942;23;20163;-58
2023/12/05 10:39:58;;;;;;;5.43;5.00;;;;;;;9.17;100.00;104677.53;6185218;23;20664;-57
2023/12/05 10:42:26;;;;;;;7.33;5.20;;;;;;;9.03;100.00;97099.59;6184982;23;20166;-58
2023/12/05 10:44:53;;;;;;;4.47;4.27;;;;;;;9.02;100.00;106622.84;6185115;23;20537;-58
2023/12/05 10:47:25;;;;;;;4.33;4.03;;;;;;;9.06;100.00;114863.44;6185181;23;20169;-57
2023/12/05 10:49:52;;;;;;;3.70;3.50;;;;;;;8.87;100.00;115486.50;6184636;23;20182;-58
2023/12/05 10:52:21;;;;;;;4.07;3.77;;;;;;;9.04;100.00;120799.28;6185008;23;20264;-57
2023/12/05 10:54:55;;;;;;;5.10;4.63;;;;;;;9.06;100.00;126753.41;6184702;23;20154;-57
2023/12/05 10:57:30;;;;;;;4.53;3.93;;;;;;;9.02;100.00;125092.19;6184228;23;20260;-58
2023/12/05 10:59:57;;;;;;;5.77;5.17;;;;;;;8.96;100.00;107270.66;6184074;23;20153;-57
2023/12/05 11:02:26;;;;;;;4.67;4.03;;;;;;;9.06;100.00;110579.69;6184303;23;20221;-57
2023/12/05 11:04:54;;;;;;;4.37;4.10;;;;;;;8.94;100.00;107595.06;6183944;23;20217;-58
2023/12/05 11:07:21;;;;;;;3.67;3.47;;;;;;;8.84;100.00;109880.81;6184591;23;20189;-58
2023/12/05 11:09:49;;;;;;;5.33;4.23;;;;;;;8.99;100.00;100702.97;6184281;23;20178;-58
2023/12/05 11:12:19;;;;;;;7.40;4.20;;;;;;;9.06;100.00;98416.16;6183849;23;20198;-58
2023/12/05 11:14:47;;;;;;;5.87;5.00;;;;;;;9.08;100.00;108937.22;6184497;23;20249;-59
2023/12/05 11:17:20;;;;;;;6.00;4.43;;;;;;;9.07;100.00;122457.28;6184697;23;20498;-58
2023/12/05 11:20:02;;;;;;;6.67;5.23;;;;;;;9.10;100.00;122133.09;6184350;23;20191;-57
2023/12/05 11:22:41;;;;;;;13.83;7.50;;;;;;;9.21;100.00;124139.44;6184252;23;20162;-58
2023/12/05 11:25:24;;;;;;;27.73;7.53;;;;;;;9.22;100.00;118194.38;6184419;23;20213;-58